Time;durP1;ratioP1;P1;durP2;ratioP2;P2;SDS_P1;SDS_P2;PMS_P1;PMS_P2;Temp;Humidity;BMP_temperature;BMP_pressure;BME280_temperature;BME280_humidity;BME280_pressure;Samples;Min_cycle;Max_cycle;Signal;HPM_P1;HPM_P2
2023/02/02 00:09:35;;;;;;;;;;;;;;;6.26;71.62;100447.97;1087824;54;19927;-82
2023/02/02 00:10:42;;;;;;;;;;;;;;;6.28;71.56;100450.53;1088382;54;19939;-83
2023/02/02 00:11:47;;;;;;;;;;;;;;;6.21;71.57;100445.63;1088325;54;19937;-84
2023/02/02 00:12:50;;;;;;;;;;;;;;;6.23;71.73;100449.03;1088421;54;19933;-84
2023/02/02 00:13:54;;;;;;;;;;;;;;;6.19;71.91;100433.44;1088487;54;19942;-83
2023/02/02 00:14:56;;;;;;;;;;;;;;;6.28;71.69;100429.31;1088394;54;19931;-82
2023/02/02 00:16:00;;;;;;;;;;;;;;;6.27;71.60;100428.44;1088435;54;20575;-81
2023/02/02 00:17:10;;;;;;;;;;;;;;;6.21;71.68;100426.22;1088357;54;20327;-82
2023/02/02 00:18:11;;;;;;;;;;;;;;;6.23;71.88;100416.34;1088363;54;19942;-83
2023/02/02 00:19:20;;;;;;;;;;;;;;;6.20;72.04;100411.25;1088414;54;19943;-82
2023/02/02 00:20:22;;;;;;;;;;;;;;;6.25;71.93;100422.38;1088769;46;19957;-84
2023/02/02 00:21:37;;;;;;;;;;;;;;;6.33;71.65;100425.34;1094285;46;19942;-83
2023/02/02 00:22:43;;;;;;;;;;;;;;;6.25;71.96;100427.69;1088415;54;19939;-83
2023/02/02 00:23:45;;;;;;;;;;;;;;;6.19;72.29;100421.00;1088453;54;19942;-83
2023/02/02 00:24:49;;;;;;;;;;;;;;;6.17;72.21;100433.56;1088313;54;19950;-81
2023/02/02 00:25:52;;;;;;;;;;;;;;;6.25;71.83;100427.69;1092125;39;20488;-83
2023/02/02 00:27:11;;;;;;;;;;;;;;;6.31;71.45;100435.25;1088294;54;19930;-82
2023/02/02 00:28:14;;;;;;;;;;;;;;;6.27;71.55;100433.75;1088281;54;19943;-80
2023/02/02 00:29:31;;;;;;;;;;;;;;;6.28;71.98;100424.81;1088586;54;19927;-82
2023/02/02 00:30:32;;;;;;;;;;;;;;;6.19;72.08;100431.63;1088578;54;19966;-83
2023/02/02 00:31:40;;;;;;;;;;;;;;;6.21;71.78;100410.28;1088575;54;19933;-81
2023/02/02 00:32:41;;;;;;;;;;;;;;;6.21;71.72;100426.22;1088374;54;19943;-80
2023/02/02 00:33:52;;;;;;;;;;;;;;;6.26;71.65;100426.72;1088478;47;19950;-82
2023/02/02 00:34:59;;;;;;;;;;;;;;;6.30;71.54;100437.97;1089764;46;19958;-81
2023/02/02 00:36:07;;;;;;;;;;;;;;;6.25;71.41;100422.38;1088323;47;19949;-82
2023/02/02 00:37:09;;;;;;;;;;;;;;;6.24;71.77;100418.03;1092305;46;19939;-82
2023/02/02 00:38:19;;;;;;;;;;;;;;;6.21;71.60;100427.06;1089054;46;19982;-81
2023/02/02 00:39:22;;;;;;;;;;;;;;;6.26;71.51;100429.38;1088321;47;19942;-82
2023/02/02 00:40:27;;;;;;;;;;;;;;;6.19;71.97;100420.16;1090562;46;19943;-80
2023/02/02 00:41:33;;;;;;;;;;;;;;;6.25;71.79;100427.69;1088227;54;19942;-81
2023/02/02 00:42:36;;;;;;;;;;;;;;;6.14;72.21;100430.25;1089786;46;19975;-82
2023/02/02 00:43:42;;;;;;;;;;;;;;;6.12;72.18;100417.06;1088233;54;19942;-78
2023/02/02 00:46:02;;;;;;;;;;;;;;;6.18;72.33;100429.06;1088303;54;19958;-82
2023/02/02 00:48:28;;;;;;;;;;;;;;;6.10;72.63;100429.59;1088560;54;19971;-81
2023/02/02 00:49:30;;;;;;;;;;;;;;;6.23;72.09;100425.16;1088401;54;19958;-82
2023/02/02 00:50:41;;;;;;;;;;;;;;;6.16;72.47;100409.75;1088737;46;19950;-81
2023/02/02 00:51:44;;;;;;;;;;;;;;;6.16;72.45;100428.31;1090036;46;19950;-80
2023/02/02 00:52:49;;;;;;;;;;;;;;;6.26;72.51;100424.06;1089942;46;19942;-82
2023/02/02 00:53:50;;;;;;;;;;;;;;;6.22;72.60;100417.31;1088284;54;19927;-81
2023/02/02 00:54:59;;;;;;;;;;;;;;;6.19;72.72;100415.69;1088660;46;19943;-81
2023/02/02 00:56:01;;;;;;;;;;;;;;;6.15;72.86;100411.56;1088405;47;19966;-81
2023/02/02 00:57:07;;;;;;;;;;;;;;;6.15;73.24;100413.34;1088267;54;19998;-81
2023/02/02 00:58:09;;;;;;;;;;;;;;;6.13;73.24;100415.28;1088144;54;19943;-82
2023/02/02 00:59:12;;;;;;;;;;;;;;;6.15;73.71;100422.19;1089962;47;19950;-81
2023/02/02 01:00:15;;;;;;;;;;;;;;;6.14;73.79;100424.97;1091493;46;19965;-84
2023/02/02 01:01:31;;;;;;;;;;;;;;;6.20;73.66;100417.38;1090358;46;19933;-83
2023/02/02 01:02:32;;;;;;;;;;;;;;;6.15;73.55;100414.22;1088259;54;19943;-81
2023/02/02 01:03:49;;;;;;;;;;;;;;;6.12;74.24;100424.22;1088391;54;19942;-82
2023/02/02 01:04:50;;;;;;;;;;;;;;;6.07;74.44;100420.06;1088204;54;19933;-82
2023/02/02 01:06:00;;;;;;;;;;;;;;;6.12;74.41;100419.72;1088134;54;19942;-82
2023/02/02 01:07:01;;;;;;;;;;;;;;;6.15;74.66;100431.94;1088325;46;19943;-83
2023/02/02 01:08:05;;;;;;;;;;;;;;;6.11;74.40;100431.31;1088280;54;19942;-81
2023/02/02 01:09:06;;;;;;;;;;;;;;;6.10;74.47;100445.53;1088374;54;19943;-81
2023/02/02 01:10:37;;;;;;;;;;;;;;;6.19;74.46;100441.41;1088278;54;19942;-82
2023/02/02 01:11:39;;;;;;;;;;;;;;;6.16;74.42;100442.47;1088225;54;19966;-81
2023/02/02 01:12:51;;;;;;;;;;;;;;;5.98;75.04;100441.88;1088245;54;19947;-82
2023/02/02 01:13:53;;;;;;;;;;;;;;;6.05;75.24;100443.19;1088281;47;19966;-82
2023/02/02 01:15:01;;;;;;;;;;;;;;;6.15;74.95;100435.47;1088247;54;19934;-83
2023/02/02 01:16:06;;;;;;;;;;;;;;;5.99;75.31;100435.66;1088444;54;19965;-81
2023/02/02 01:17:10;;;;;;;;;;;;;;;6.03;76.05;100433.66;1088204;54;19942;-81
2023/02/02 01:18:12;;;;;;;;;;;;;;;6.00;76.00;100447.97;1088299;54;19965;-81
2023/02/02 01:19:38;;;;;;;;;;;;;;;5.97;76.29;100445.50;1088394;54;19954;-81
2023/02/02 01:20:39;;;;;;;;;;;;;;;6.01;76.11;100438.19;1088275;54;19933;-82
2023/02/02 06:01:08;;;;;;;;;;;;;;;6.00;78.23;100553.31;1080681;54;19927;-83
2023/02/02 06:06:22;;;;;;;;;;;;;;;6.11;77.80;100556.06;1088522;54;20015;-83
2023/02/02 06:07:28;;;;;;;;;;;;;;;6.03;78.00;100563.69;1088341;54;19943;-82
2023/02/02 06:08:29;;;;;;;;;;;;;;;6.03;78.38;100561.91;1088444;54;19926;-82
2023/02/02 06:09:42;;;;;;;;;;;;;;;6.04;78.22;100566.28;1088448;54;19934;-83
2023/02/02 06:24:59;;;;;;;;;;;;;;;6.17;77.59;100570.75;1087801;54;19994;-82
2023/02/02 06:26:02;;;;;;;;;;;;;;;6.13;77.68;100585.19;1087945;54;19943;-81
2023/02/02 06:27:06;;;;;;;;;;;;;;;6.19;77.86;100579.47;1090697;46;19950;-82
2023/02/02 06:28:13;;;;;;;;;;;;;;;6.22;77.77;100577.44;1089076;46;19935;-85
2023/02/02 06:29:44;;;;;;;;;;;;;;;6.13;78.00;100586.03;1087971;54;19951;-82
2023/02/02 07:25:33;;;;;;;;;;;;;;;6.32;76.66;100598.06;1087460;54;19938;-82
2023/02/02 07:28:21;;;;;;;;;;;;;;;6.24;76.87;100602.09;1088077;54;19931;-83
2023/02/02 07:29:25;;;;;;;;;;;;;;;6.21;76.82;100601.44;1088237;54;19942;-82
2023/02/02 07:30:30;;;;;;;;;;;;;;;6.22;76.81;100608.47;1088276;47;19942;-82
2023/02/02 08:03:21;;;;;;;;;;;;;;;6.45;76.65;100632.59;1087691;54;20821;-79
2023/02/02 08:04:36;;;;;;;;;;;;;;;6.46;76.53;100631.66;1088690;47;19973;-81
2023/02/02 08:09:32;;;;;;;;;;;;;;;6.53;75.99;100635.59;1087974;54;19953;-82
2023/02/02 08:12:32;;;;;;;;;;;;;;;6.39;76.85;100645.34;1089558;46;19998;-82
2023/02/02 08:13:34;;;;;;;;;;;;;;;6.37;76.86;100649.91;1089854;46;19942;-82
2023/02/02 08:14:48;;;;;;;;;;;;;;;6.44;76.61;100645.03;1092133;46;19950;-82
2023/02/02 08:15:56;;;;;;;;;;;;;;;6.46;76.96;100645.81;1089801;46;19962;-82
2023/02/02 08:17:02;;;;;;;;;;;;;;;6.43;77.23;100658.41;1087943;54;19939;-81
2023/02/02 08:18:03;;;;;;;;;;;;;;;6.44;76.69;100652.16;1090908;39;20657;-82
2023/02/02 08:19:39;;;;;;;;;;;;;;;6.49;76.88;100665.97;1088206;54;20647;-83
2023/02/02 08:20:43;;;;;;;;;;;;;;;6.59;76.71;100663.53;1088509;54;19934;-83
2023/02/02 08:21:54;;;;;;;;;;;;;;;6.58;76.83;100659.19;1096286;39;20657;-82
2023/02/02 08:22:55;;;;;;;;;;;;;;;6.45;76.84;100664.47;1088127;54;19934;-81
2023/02/02 08:24:39;;;;;;;;;;;;;;;6.42;76.99;100659.38;1088372;54;19934;-83
2023/02/02 08:27:34;;;;;;;;;;;;;;;6.38;77.17;100667.56;1088233;54;19959;-84
2023/02/02 08:28:40;;;;;;;;;;;;;;;6.39;77.42;100666.59;1088372;54;19942;-82
2023/02/02 08:29:48;;;;;;;;;;;;;;;6.42;77.42;100675.31;1088233;54;19935;-83
2023/02/02 08:31:21;;;;;;;;;;;;;;;6.46;77.57;100666.19;1088201;54;19994;-83
2023/02/02 08:32:37;;;;;;;;;;;;;;;6.44;77.64;100668.09;1088072;54;19942;-82
2023/02/02 08:33:46;;;;;;;;;;;;;;;6.40;77.30;100670.97;1088519;46;19947;-81
2023/02/02 08:36:11;;;;;;;;;;;;;;;6.41;77.48;100674.47;1088271;54;19945;-80
2023/02/02 08:37:15;;;;;;;;;;;;;;;6.42;77.68;100675.31;1088276;46;19943;-84
2023/02/02 08:38:17;;;;;;;;;;;;;;;6.36;78.19;100671.28;1088768;46;19943;-82
2023/02/02 09:54:39;;;;;;;;;;;;;;;7.07;73.94;100681.56;1087336;54;19952;-79
2023/02/02 09:55:52;;;;;;;;;;;;;;;7.24;73.96;100678.56;1088318;54;19950;-83
2023/02/02 09:57:26;;;;;;;;;;;;;;;7.15;73.65;100676.56;1088358;54;19949;-84
2023/02/02 10:00:56;;;;;;;;;;;;;;;7.24;73.23;100681.22;1084781;54;19950;-81
2023/02/02 10:02:04;;;;;;;;;;;;;;;7.19;73.51;100678.03;1088030;54;19966;-80
2023/02/02 10:03:21;;;;;;;;;;;;;;;7.13;73.52;100681.97;1088091;54;19966;-81
2023/02/02 10:04:56;;;;;;;;;;;;;;;7.13;73.70;100676.66;1088138;54;19943;-80
2023/02/02 10:06:19;;;;;;;;;;;;;;;7.11;73.72;100694.53;1087661;54;20006;-80
2023/02/02 10:07:29;;;;;;;;;;;;;;;7.15;73.41;100697.84;1091130;46;19957;-81
2023/02/02 10:24:41;;;;;;;;;;;;;;;7.18;72.92;100710.91;1087467;54;19958;-83
2023/02/02 10:25:50;;;;;;;;;;;;;;;7.17;73.34;100703.91;1087196;54;19954;-81
2023/02/02 10:26:55;;;;;;;;;;;;;;;7.19;73.37;100707.28;1087208;54;19970;-80
2023/02/02 10:28:06;;;;;;;;;;;;;;;7.22;73.39;100709.72;1087737;54;20021;-79
2023/02/02 10:29:17;;;;;;;;;;;;;;;7.18;72.79;100700.25;1087758;54;19961;-79
2023/02/02 10:30:23;;;;;;;;;;;;;;;7.22;72.89;100704.41;1087695;54;19943;-79
2023/02/02 10:31:37;;;;;;;;;;;;;;;7.25;73.20;100701.56;1087470;54;19943;-81
2023/02/02 10:32:48;;;;;;;;;;;;;;;7.23;73.00;100706.13;1087778;54;19942;-79
2023/02/02 10:34:01;;;;;;;;;;;;;;;7.23;73.34;100703.47;1087743;54;19944;-79
2023/02/02 10:35:11;;;;;;;;;;;;;;;7.22;72.75;100706.25;1087787;54;19943;-79
2023/02/02 10:36:19;;;;;;;;;;;;;;;7.31;73.12;100714.41;1087773;54;19966;-79
2023/02/02 10:37:28;;;;;;;;;;;;;;;7.39;72.52;100713.03;1088694;46;19939;-80
2023/02/02 10:38:39;;;;;;;;;;;;;;;7.36;72.62;100713.25;1087797;54;19943;-80
2023/02/02 10:39:54;;;;;;;;;;;;;;;7.41;72.62;100716.44;1088635;46;19930;-79
2023/02/02 10:40:58;;;;;;;;;;;;;;;7.31;72.74;100722.38;1088388;46;19938;-80
2023/02/02 10:42:08;;;;;;;;;;;;;;;7.31;72.83;100719.72;1088391;46;19970;-80
2023/02/02 10:44:57;;;;;;;;;;;;;;;7.36;72.86;100729.22;1088780;46;19942;-79
2023/02/02 10:45:58;;;;;;;;;;;;;;;7.29;72.80;100718.97;1087571;54;19939;-80
2023/02/02 11:20:04;;;;;;;;;;;;;;;7.23;74.84;100738.03;1088185;54;19919;-84
2023/02/02 11:23:06;;;;;;;;;;;;;;;7.19;75.56;100733.88;1088055;54;19943;-84
2023/02/02 11:34:27;;;;;;;;;;;;;;;6.79;79.02;100726.00;1087881;54;19942;-81
2023/02/02 11:35:28;;;;;;;;;;;;;;;6.82;78.39;100731.94;1088025;54;19942;-81
2023/02/02 11:42:49;;;;;;;;;;;;;;;6.84;79.19;100734.47;1088002;54;19938;-82
2023/02/02 11:43:57;;;;;;;;;;;;;;;6.82;78.95;100729.28;1088300;46;20042;-81
2023/02/02 11:44:58;;;;;;;;;;;;;;;6.76;78.75;100720.88;1088039;54;19977;-80
2023/02/02 11:46:27;;;;;;;;;;;;;;;6.77;79.00;100735.88;1088073;54;19950;-82
2023/02/02 13:09:35;;;;;;;;;;;;;;;6.87;77.69;100719.19;1088507;54;19949;-82
2023/02/02 13:11:32;;;;;;;;;;;;;;;6.93;77.64;100722.38;1088340;54;19957;-84
2023/02/02 13:13:01;;;;;;;;;;;;;;;6.93;76.96;100711.75;1093281;46;19994;-82
2023/02/02 13:14:10;;;;;;;;;;;;;;;7.00;77.01;100718.34;1089128;46;19966;-82
2023/02/02 13:28:17;;;;;;;;;;;;;;;7.03;76.42;100726.13;1091001;46;19985;-83
2023/02/02 13:37:13;;;;;;;;;;;;;;;7.10;75.78;100747.81;1087843;54;19930;-84
2023/02/02 13:38:20;;;;;;;;;;;;;;;7.17;76.05;100754.44;1092283;46;19942;-82
2023/02/02 13:39:36;;;;;;;;;;;;;;;7.14;75.74;100751.97;1088200;54;19939;-83
2023/02/02 13:41:02;;;;;;;;;;;;;;;7.12;75.55;100748.56;1088096;54;19923;-82
2023/02/02 13:42:43;;;;;;;;;;;;;;;;;;;;;
2023/02/02 13:44:07;;;;;;;;;;;;;;;7.16;75.64;100750.06;1088058;54;19990;-84
2023/02/02 13:50:10;;;;;;;;;;;;;;;7.21;75.11;100750.59;1087860;54;19941;-84
2023/02/02 13:51:28;;;;;;;;;;;;;;;7.22;75.29;100752.28;1088234;54;20289;-82
2023/02/02 13:52:54;;;;;;;;;;;;;;;7.21;74.84;100761.22;1090521;46;19938;-82
2023/02/02 13:54:46;;;;;;;;;;;;;;;7.20;74.87;100756.84;1088219;54;20079;-82
2023/02/02 13:57:43;;;;;;;;;;;;;;;7.23;74.95;100756.66;1088501;54;19947;-83
2023/02/02 14:05:33;;;;;;;;;;;;;;;7.28;74.31;100769.63;1088764;46;20032;-84
2023/02/02 20:39:52;;;;;;;;;;;;;;;6.95;72.21;101060.72;1085617;54;21052;-81
2023/02/02 20:40:54;;;;;;;;;;;;;;;6.97;72.42;101062.38;1086857;39;20371;-80
2023/02/02 20:41:58;;;;;;;;;;;;;;;6.94;72.30;101073.19;1086261;47;19950;-81
2023/02/02 20:43:02;;;;;;;;;;;;;;;7.02;72.52;101065.56;1086552;39;20384;-81
2023/02/02 20:44:03;;;;;;;;;;;;;;;6.93;72.41;101066.16;1086032;54;19950;-80
2023/02/02 20:45:07;;;;;;;;;;;;;;;6.93;72.71;101063.50;1086695;54;20586;-82
2023/02/02 20:46:09;;;;;;;;;;;;;;;6.97;72.50;101067.69;1086355;54;19983;-82
2023/02/02 20:47:13;;;;;;;;;;;;;;;6.96;72.57;101070.41;1087500;39;20375;-84
2023/02/02 20:48:14;;;;;;;;;;;;;;;6.90;72.46;101071.66;1087006;39;20243;-82
2023/02/02 20:49:19;;;;;;;;;;;;;;;6.97;72.53;101075.66;1086613;46;20439;-79
2023/02/02 20:50:23;;;;;;;;;;;;;;;6.98;72.22;101066.72;1086271;54;19946;-79
2023/02/02 20:51:25;;;;;;;;;;;;;;;6.94;72.11;101069.69;1086715;54;19951;-80
2023/02/02 20:52:29;;;;;;;;;;;;;;;6.93;72.73;101076.78;1086933;54;19954;-81
2023/02/02 20:53:30;;;;;;;;;;;;;;;6.91;72.49;101073.38;1086232;54;19950;-83
2023/02/02 20:54:34;;;;;;;;;;;;;;;6.92;72.50;101074.22;1086131;54;19958;-81
2023/02/02 20:55:41;;;;;;;;;;;;;;;6.97;72.40;101073.00;1086331;54;19945;-83
2023/02/02 20:56:42;;;;;;;;;;;;;;;6.92;72.49;101072.41;1086642;54;19957;-82
2023/02/02 20:57:45;;;;;;;;;;;;;;;6.93;72.56;101076.78;1086582;54;19953;-82
2023/02/02 20:58:47;;;;;;;;;;;;;;;6.90;72.47;101078.78;1086671;39;20184;-84
2023/02/02 20:59:56;;;;;;;;;;;;;;;6.89;72.71;101077.06;1086642;54;20078;-80
2023/02/02 21:01:04;;;;;;;;;;;;;;;6.90;72.50;101079.63;1087706;46;19970;-82
2023/02/02 21:02:07;;;;;;;;;;;;;;;6.92;72.52;101080.38;1086877;54;20639;-80
2023/02/02 21:03:08;;;;;;;;;;;;;;;6.89;72.65;101080.59;1086568;54;19951;-82
2023/02/02 21:04:14;;;;;;;;;;;;;;;6.92;72.66;101083.06;1086628;54;19947;-79
2023/02/02 21:05:15;;;;;;;;;;;;;;;6.95;72.44;101084.66;1086665;54;19969;-83
2023/02/02 21:06:19;;;;;;;;;;;;;;;6.93;72.80;101084.75;1086924;54;19957;-83
2023/02/02 21:07:22;;;;;;;;;;;;;;;6.98;72.49;101081.81;1086588;54;19947;-82
2023/02/02 21:08:24;;;;;;;;;;;;;;;6.96;72.36;101083.72;1087039;46;19946;-81
2023/02/02 21:09:28;;;;;;;;;;;;;;;6.91;72.26;101081.34;1086911;54;19981;-82
2023/02/02 21:10:29;;;;;;;;;;;;;;;6.92;72.22;101079.56;1086838;54;19958;-83
2023/02/02 21:11:35;;;;;;;;;;;;;;;6.92;72.49;101079.56;1087275;46;19945;-81
2023/02/02 21:12:36;;;;;;;;;;;;;;;6.90;72.52;101079.63;1087003;54;19950;-80
2023/02/02 21:13:43;;;;;;;;;;;;;;;6.94;72.36;101083.81;1086460;54;19951;-81
2023/02/02 21:14:44;;;;;;;;;;;;;;;6.96;72.25;101078.38;1086282;54;19951;-80
2023/02/02 21:15:48;;;;;;;;;;;;;;;6.93;72.04;101084.75;1086374;54;19942;-80
2023/02/02 21:16:51;;;;;;;;;;;;;;;6.93;72.08;101083.91;1086629;54;19950;-83
2023/02/02 21:17:52;;;;;;;;;;;;;;;7.01;72.10;101081.63;1086145;54;20001;-81
2023/02/02 21:18:56;;;;;;;;;;;;;;;7.00;72.06;101083.41;1086193;54;19969;-82
2023/02/02 21:19:57;;;;;;;;;;;;;;;7.00;71.93;101088.75;1086422;54;19951;-81
2023/02/02 21:21:01;;;;;;;;;;;;;;;7.02;71.64;101092.16;1086499;54;19950;-81
2023/02/02 21:22:05;;;;;;;;;;;;;;;6.95;71.86;101085.53;1087011;39;20384;-81
2023/02/02 21:23:08;;;;;;;;;;;;;;;6.94;72.09;101088.28;1086713;54;19942;-80
2023/02/02 21:24:13;;;;;;;;;;;;;;;7.01;71.89;101087.78;1086504;54;19958;-81
2023/02/02 21:25:17;;;;;;;;;;;;;;;6.99;71.67;101095.00;1087430;39;20393;-83
2023/02/02 21:26:19;;;;;;;;;;;;;;;6.98;71.36;101092.44;1086694;54;20006;-80
2023/02/02 21:27:25;;;;;;;;;;;;;;;6.98;71.51;101093.31;1086280;54;19946;-83
2023/02/02 21:28:26;;;;;;;;;;;;;;;7.05;71.22;101088.44;1086449;54;19970;-84
2023/02/02 21:29:30;;;;;;;;;;;;;;;7.15;71.15;101096.72;1088370;39;20486;-79
2023/02/02 21:30:31;;;;;;;;;;;;;;;7.14;70.88;101095.84;1086976;39;20341;-83
2023/02/02 21:31:38;;;;;;;;;;;;;;;7.21;70.86;101098.13;1086292;54;19953;-81
2023/02/02 21:32:39;;;;;;;;;;;;;;;7.27;70.85;101087.97;1086353;54;19946;-82
2023/02/02 21:33:43;;;;;;;;;;;;;;;7.29;70.63;101094.03;1086735;46;19973;-82
2023/02/02 21:34:44;;;;;;;;;;;;;;;7.28;70.45;101100.28;1086352;54;19950;-82
2023/02/02 21:35:48;;;;;;;;;;;;;;;7.26;70.54;101094.25;1086123;54;19946;-82
2023/02/02 21:36:52;;;;;;;;;;;;;;;7.14;70.52;101108.31;1086612;54;19939;-82
2023/02/02 21:37:58;;;;;;;;;;;;;;;7.20;70.62;101096.44;1086360;54;19950;-81
2023/02/02 21:39:10;;;;;;;;;;;;;;;7.11;70.66;101087.22;1087628;39;20401;-82
2023/02/02 21:40:15;;;;;;;;;;;;;;;7.10;70.71;101093.47;1086185;54;19973;-79
2023/02/02 21:41:16;;;;;;;;;;;;;;;7.12;70.84;101095.13;1086044;54;19969;-81
2023/02/02 21:42:21;;;;;;;;;;;;;;;7.20;70.80;101091.94;1086195;54;19971;-81
2023/02/02 21:43:28;;;;;;;;;;;;;;;7.27;70.31;101092.41;1086347;54;19950;-80
2023/02/02 21:44:31;;;;;;;;;;;;;;;7.20;70.67;101093.75;1086626;54;19951;-82
2023/02/02 21:45:36;;;;;;;;;;;;;;;7.22;70.69;101100.69;1086937;54;19951;-82
2023/02/02 21:46:37;;;;;;;;;;;;;;;7.22;70.98;101100.69;1087138;54;19957;-81
2023/02/02 21:47:46;;;;;;;;;;;;;;;7.29;70.52;101102.00;1087859;39;20340;-80
2023/02/02 21:48:48;;;;;;;;;;;;;;;7.19;70.53;101095.56;1086660;54;20516;-83
2023/02/02 21:49:51;;;;;;;;;;;;;;;7.22;70.66;101095.38;1086528;54;20074;-80
2023/02/02 21:50:52;;;;;;;;;;;;;;;7.17;70.27;101089.50;1086506;54;19973;-80
2023/02/02 21:51:57;;;;;;;;;;;;;;;7.17;70.44;101095.66;1086303;54;19950;-79
2023/02/02 21:53:11;;;;;;;;;;;;;;;7.27;70.38;101103.06;1086455;54;19973;-82
2023/02/02 21:54:18;;;;;;;;;;;;;;;7.33;70.22;101087.56;1086193;54;19946;-80
2023/02/02 21:55:27;;;;;;;;;;;;;;;7.24;70.04;101092.59;1086103;46;20358;-82
2023/02/02 21:56:37;;;;;;;;;;;;;;;7.27;70.19;101098.59;1086295;54;19977;-80
2023/02/02 21:57:42;;;;;;;;;;;;;;;7.27;69.91;101093.28;1086205;54;19951;-81
2023/02/02 21:58:46;;;;;;;;;;;;;;;7.15;70.17;101088.75;1086534;54;19977;-80
2023/02/02 21:59:52;;;;;;;;;;;;;;;7.14;70.16;101084.38;1086219;54;19957;-82
2023/02/02 22:00:59;;;;;;;;;;;;;;;7.14;70.15;101085.22;1086310;54;19947;-80
2023/02/02 22:02:15;;;;;;;;;;;;;;;7.18;69.93;101091.19;1088469;39;20373;-80
2023/02/02 22:03:29;;;;;;;;;;;;;;;7.24;69.70;101088.16;1086675;54;19982;-82
2023/02/02 22:04:35;;;;;;;;;;;;;;;7.21;69.77;101085.69;1086640;54;19947;-81
2023/02/02 22:05:36;;;;;;;;;;;;;;;7.33;69.57;101092.00;1086530;54;19951;-81
2023/02/02 22:06:41;;;;;;;;;;;;;;;7.34;69.71;101089.28;1086340;54;19950;-80
2023/02/02 22:07:44;;;;;;;;;;;;;;;7.27;69.50;101087.97;1086518;54;19950;-79
2023/02/02 22:08:53;;;;;;;;;;;;;;;7.21;69.40;101091.00;1087016;54;19950;-87
2023/02/02 22:09:54;;;;;;;;;;;;;;;7.14;69.79;101092.34;1086878;54;20003;-80
2023/02/02 22:10:58;;;;;;;;;;;;;;;7.21;69.74;101093.66;1086161;54;20862;-79
2023/02/02 22:12:02;;;;;;;;;;;;;;;7.13;69.76;101095.94;1085616;54;19950;-79
2023/02/02 22:13:12;;;;;;;;;;;;;;;7.13;69.91;101098.63;1085681;54;20683;-80
2023/02/02 22:14:21;;;;;;;;;;;;;;;7.13;69.75;101098.63;1090005;39;20463;-79
2023/02/02 22:15:25;;;;;;;;;;;;;;;7.15;69.80;101089.56;1084851;54;19953;-80
2023/02/02 22:16:29;;;;;;;;;;;;;;;7.22;69.51;101090.06;1084948;54;19946;-79
2023/02/02 22:17:36;;;;;;;;;;;;;;;7.22;69.51;101089.22;1085091;54;19946;-79
2023/02/02 22:18:40;;;;;;;;;;;;;;;7.27;69.08;101087.09;1085739;39;20320;-78
2023/02/02 22:19:42;;;;;;;;;;;;;;;7.17;69.02;101097.47;1085112;47;19974;-77
2023/02/02 22:20:49;;;;;;;;;;;;;;;7.18;69.48;101093.84;1084998;54;19946;-79
2023/02/02 22:21:51;;;;;;;;;;;;;;;7.24;69.14;101088.16;1085191;54;19954;-79
2023/02/02 22:22:56;;;;;;;;;;;;;;;7.28;69.01;101092.31;1085253;54;19946;-79
2023/02/02 22:23:59;;;;;;;;;;;;;;;7.19;69.01;101084.91;1085018;54;19969;-79
2023/02/02 22:25:05;;;;;;;;;;;;;;;7.26;68.85;101086.25;1084706;54;19946;-77
2023/02/02 22:26:16;;;;;;;;;;;;;;;7.18;69.04;101081.41;1085412;39;20312;-78
2023/02/02 22:27:21;;;;;;;;;;;;;;;7.14;69.15;101087.03;1084485;54;20421;-78
2023/02/02 22:28:30;;;;;;;;;;;;;;;7.12;69.47;101092.44;1085070;39;20767;-78
2023/02/02 22:29:40;;;;;;;;;;;;;;;7.22;69.11;101084.72;1084386;54;19950;-80
2023/02/02 22:30:51;;;;;;;;;;;;;;;7.15;69.14;101083.41;1084340;54;19946;-79
2023/02/02 22:31:57;;;;;;;;;;;;;;;7.16;69.16;101078.00;1085038;54;19974;-79
2023/02/02 22:33:08;;;;;;;;;;;;;;;7.16;69.39;101085.13;1085530;46;19973;-79
2023/02/02 22:34:12;;;;;;;;;;;;;;;7.20;69.24;101083.13;1086282;39;20241;-79
2023/02/02 22:35:20;;;;;;;;;;;;;;;7.30;68.84;101082.44;1085454;54;20002;-79
2023/02/02 22:36:25;;;;;;;;;;;;;;;7.18;69.09;101091.19;1084814;54;20010;-80
2023/02/02 22:37:29;;;;;;;;;;;;;;;7.27;68.67;101087.09;1084946;54;19954;-79
2023/02/02 22:38:33;;;;;;;;;;;;;;;7.23;68.91;101081.13;1084505;54;19961;-79
2023/02/02 22:39:37;;;;;;;;;;;;;;;7.30;68.69;101073.63;1084735;54;19946;-80
2023/02/02 22:40:41;;;;;;;;;;;;;;;7.28;68.77;101073.69;1084179;54;19970;-78
2023/02/02 22:41:44;;;;;;;;;;;;;;;7.21;68.78;101075.03;1084843;54;19981;-80
2023/02/02 22:42:45;;;;;;;;;;;;;;;7.22;68.82;101084.72;1084792;54;19977;-78
2023/02/02 22:43:49;;;;;;;;;;;;;;;7.16;69.22;101078.00;1084934;54;19962;-79
2023/02/02 22:44:53;;;;;;;;;;;;;;;7.13;69.07;101077.34;1085166;54;19946;-78
2023/02/02 22:45:57;;;;;;;;;;;;;;;7.13;69.12;101077.34;1085691;31;20443;-78
2023/02/02 22:46:58;;;;;;;;;;;;;;;7.18;69.08;101072.56;1084712;54;19947;-78
2023/02/02 22:48:03;;;;;;;;;;;;;;;7.10;69.26;101075.72;1084633;54;19950;-81
2023/02/02 22:49:04;;;;;;;;;;;;;;;7.16;69.29;101074.50;1084660;54;19946;-80
2023/02/02 22:50:08;;;;;;;;;;;;;;;7.15;69.14;101073.63;1084738;54;19950;-77
2023/02/02 22:51:09;;;;;;;;;;;;;;;7.22;69.08;101079.41;1085979;39;20702;-77
2023/02/02 22:52:13;;;;;;;;;;;;;;;7.17;69.22;101076.22;1084765;54;19969;-77
2023/02/02 22:53:14;;;;;;;;;;;;;;;7.16;69.44;101074.50;1085186;54;19974;-79
2023/02/02 22:54:18;;;;;;;;;;;;;;;7.09;69.16;101073.16;1084789;54;19959;-77
2023/02/02 22:55:19;;;;;;;;;;;;;;;7.09;69.35;101071.38;1084909;54;19939;-80
2023/02/02 22:56:23;;;;;;;;;;;;;;;7.11;69.50;101068.59;1084774;54;20046;-78
2023/02/02 22:57:24;;;;;;;;;;;;;;;7.15;69.45;101072.78;1084692;54;19942;-78
2023/02/02 22:58:28;;;;;;;;;;;;;;;7.26;69.34;101072.97;1084235;54;19947;-78
2023/02/02 22:59:29;;;;;;;;;;;;;;;7.35;69.14;101074.16;1084638;54;19953;-78
2023/02/02 23:00:36;;;;;;;;;;;;;;;7.24;69.03;101069.53;1084649;54;19974;-77
2023/02/02 23:01:37;;;;;;;;;;;;;;;7.25;69.15;101071.25;1084865;54;19946;-78
2023/02/02 23:02:42;;;;;;;;;;;;;;;7.17;69.16;101068.22;1084579;54;20445;-78
2023/02/02 23:03:43;;;;;;;;;;;;;;;7.27;68.96;101076.47;1084810;54;19975;-79
2023/02/02 23:04:46;;;;;;;;;;;;;;;7.14;69.13;101079.88;1085346;54;19969;-78
2023/02/02 23:05:50;;;;;;;;;;;;;;;7.19;69.12;101082.25;1084742;54;19951;-77
2023/02/02 23:06:51;;;;;;;;;;;;;;;7.19;69.18;101082.25;1084624;54;19953;-78
2023/02/02 23:07:56;;;;;;;;;;;;;;;7.12;69.37;101078.28;1084419;54;19969;-79
2023/02/02 23:08:57;;;;;;;;;;;;;;;7.13;69.70;101090.63;1084619;54;19955;-78
2023/02/02 23:10:01;;;;;;;;;;;;;;;7.07;69.91;101091.03;1084684;54;19947;-78
2023/02/02 23:11:04;;;;;;;;;;;;;;;7.10;69.65;101090.81;1084380;54;19950;-77
2023/02/02 23:12:06;;;;;;;;;;;;;;;7.09;69.76;101083.78;1084258;54;19950;-80
2023/02/02 23:13:09;;;;;;;;;;;;;;;7.09;70.00;101097.97;1084343;54;19947;-77
2023/02/02 23:14:10;;;;;;;;;;;;;;;7.18;69.56;101100.03;1084832;47;19946;-78
2023/02/02 23:15:14;;;;;;;;;;;;;;;7.09;69.91;101094.44;1086939;54;19950;-79
2023/02/02 23:16:18;;;;;;;;;;;;;;;7.09;70.20;101097.09;1087723;54;19946;-79
2023/02/02 23:17:22;;;;;;;;;;;;;;;7.16;69.72;101095.78;1090370;46;19998;-78
2023/02/02 23:18:23;;;;;;;;;;;;;;;7.11;69.98;101100.50;1087627;54;19938;-78
2023/02/02 23:19:27;;;;;;;;;;;;;;;7.05;70.05;101099.09;1088623;39;20114;-81
2023/02/02 23:20:28;;;;;;;;;;;;;;;7.19;70.15;101100.88;1088015;47;19945;-80
2023/02/02 23:21:31;;;;;;;;;;;;;;;7.17;70.10;101100.97;1086717;47;20241;-79
2023/02/02 23:22:33;;;;;;;;;;;;;;;7.08;69.99;101101.56;1085717;47;19950;-78
2023/02/02 23:23:36;;;;;;;;;;;;;;;7.11;70.32;101100.50;1085475;54;20034;-79
2023/02/02 23:24:37;;;;;;;;;;;;;;;7.15;70.02;101099.38;1084966;54;19951;-82
2023/02/02 23:25:41;;;;;;;;;;;;;;;7.12;70.28;101103.09;1086385;46;19958;-80
2023/02/02 23:26:42;;;;;;;;;;;;;;;7.15;70.07;101104.69;1085036;54;19953;-80
2023/02/02 23:27:46;;;;;;;;;;;;;;;7.05;70.29;101106.22;1085715;54;20035;-81
2023/02/02 23:28:47;;;;;;;;;;;;;;;7.14;70.26;101106.47;1085176;54;19955;-81
2023/02/02 23:29:51;;;;;;;;;;;;;;;7.09;70.16;101105.06;1085193;54;20034;-79
2023/02/02 23:30:53;;;;;;;;;;;;;;;7.08;70.47;101100.72;1085353;54;19946;-79